Time;durP1;ratioP1;P1;durP2;ratioP2;P2;SDS_P1;SDS_P2;PMS_P1;PMS_P2;Temp;Humidity;BMP_temperature;BMP_pressure;BME280_temperature;BME280_humidity;BME280_pressure;Samples;Min_cycle;Max_cycle;Signal;HPM_P1;HPM_P2
2022/09/17 00:01:05;;;;;;;;;1.00;1.00;;;;;17.24;43.58;101467.88;5067045;28;46223;-73
2022/09/17 00:03:34;;;;;;;;;1.00;1.00;;;;;17.22;43.44;101469.69;5071085;28;45236;-72
2022/09/17 00:06:05;;;;;;;;;2.00;1.00;;;;;17.23;43.79;101481.16;5063358;27;45376;-73
2022/09/17 00:08:32;;;;;;;;;2.00;1.00;;;;;17.03;43.67;101455.81;5052036;28;45334;-72
2022/09/17 00:11:04;;;;;;;;;1.00;1.00;;;;;17.07;43.76;101461.97;5048470;28;45365;-72
2022/09/17 00:13:30;;;;;;;;;1.00;1.00;;;;;17.25;43.87;101501.44;5036585;28;45413;-73
2022/09/17 00:15:55;;;;;;;;;2.00;0.67;;;;;16.55;43.70;101392.03;5045174;28;45689;-73
2022/09/17 00:18:21;;;;;;;;;0.00;0.00;;;;;17.10;43.68;101476.00;5056303;28;45486;-73
2022/09/17 00:20:47;;;;;;;;;2.00;1.00;;;;;16.93;43.62;101448.91;5057580;28;45719;-73
2022/09/17 00:23:13;;;;;;;;;2.00;1.00;;;;;17.16;43.87;101494.47;5053967;28;45475;-73
2022/09/17 00:25:44;;;;;;;;;1.00;1.00;;;;;17.06;44.00;101495.50;5057438;28;45333;-73
2022/09/17 00:28:13;;;;;;;;;0.00;0.00;;;;;16.82;44.15;101453.44;5054657;28;45551;-72
2022/09/17 00:30:40;;;;;;;;;0.67;0.00;;;;;16.83;44.28;101457.88;5055777;28;46103;-72
2022/09/17 00:33:06;;;;;;;;;1.00;1.00;;;;;16.99;43.88;101484.97;5055454;28;45396;-73
2022/09/17 00:35:35;;;;;;;;;0.00;0.00;;;;;16.89;44.01;101465.72;5057012;28;45462;-72
2022/09/17 00:38:01;;;;;;;;;0.00;0.00;;;;;17.00;44.25;101490.28;5059151;28;45498;-73
2022/09/17 00:40:27;;;;;;;;;1.00;1.00;;;;;16.99;44.45;101492.94;5058726;28;45376;-74
2022/09/17 00:42:52;;;;;;;;;0.00;0.00;;;;;16.98;43.97;101496.47;5058995;28;46096;-73
2022/09/17 00:45:19;;;;;;;;;0.00;0.00;;;;;16.93;44.25;101494.75;5059190;28;45362;-74
2022/09/17 00:47:54;;;;;;;;;0.00;0.00;;;;;16.96;44.25;101501.78;5056464;28;45545;-72
2022/09/17 00:50:35;;;;;;;;;2.00;0.33;;;;;16.95;44.41;101494.75;5054547;28;46642;-73
2022/09/17 00:53:17;;;;;;;;;1.00;1.00;;;;;16.95;44.63;101498.25;5044625;28;45788;-73
2022/09/17 00:55:54;;;;;;;;;3.00;1.00;;;;;16.91;44.17;101498.31;5074324;27;45308;-73
2022/09/17 00:58:21;;;;;;;;;0.67;0.67;;;;;16.90;44.29;101494.81;5058243;28;45381;-72
2022/09/17 01:00:50;;;;;;;;;1.00;1.00;;;;;16.60;44.59;101443.09;5058496;28;45596;-73
2022/09/17 01:03:20;;;;;;;;;3.00;1.00;;;;;16.88;44.71;101498.38;5058445;28;45575;-72
2022/09/17 01:06:16;;;;;;;;;1.00;1.00;;;;;16.87;44.62;101505.44;5053498;28;45527;-73
2022/09/17 01:09:12;;;;;;;;;2.00;1.00;;;;;16.84;44.63;101494.00;5048678;28;45733;-72
2022/09/17 01:12:19;;;;;;;;;0.00;0.00;;;;;16.83;44.70;101497.56;5054835;28;46178;-72
2022/09/17 01:15:22;;;;;;;;;1.00;1.00;;;;;16.65;44.83;101473.00;5053581;28;45301;-73
2022/09/17 01:18:11;;;;;;;;;2.00;0.00;;;;;16.82;44.74;101494.00;5053929;28;45590;-73
2022/09/17 01:21:00;;;;;;;;;0.00;0.00;;;;;16.79;44.62;101494.03;5058646;28;45547;-73
2022/09/17 01:24:19;;;;;;;;;1.00;0.67;;;;;16.80;44.74;101494.91;5057063;28;46874;-73
2022/09/17 01:27:33;;;;;;;;;0.00;0.00;;;;;16.77;44.82;101503.72;5004357;28;45563;-73
2022/09/17 01:30:32;;;;;;;;;1.00;1.00;;;;;16.77;44.88;101501.09;5058586;28;45447;-72
2022/09/17 01:33:08;;;;;;;;;0.67;0.67;;;;;16.74;45.08;101498.50;5059652;28;45400;-73
2022/09/17 01:35:53;;;;;;;;;0.00;0.00;;;;;16.67;45.16;101486.22;5053536;28;46504;-73
2022/09/17 01:38:36;;;;;;;;;0.00;0.00;;;;;16.69;44.83;101500.31;5053843;28;45584;-73
2022/09/17 01:41:14;;;;;;;;;0.00;0.00;;;;;16.35;45.18;101447.81;5069178;27;45471;-71
2022/09/17 01:44:04;;;;;;;;;70.00;53.50;;;;;16.71;45.15;101515.28;5053868;28;45934;-74
2022/09/17 01:46:39;;;;;;;;;59.75;47.50;;;;;16.46;45.03;101480.25;5052909;28;45470;-73
2022/09/17 01:49:09;;;;;;;;;44.75;34.50;;;;;16.49;45.32;101489.94;5053665;28;45518;-74
2022/09/17 01:51:43;;;;;;;;;42.25;34.75;;;;;16.45;45.63;101494.38;5053856;28;45420;-73
2022/09/17 01:54:39;;;;;;;;;16.50;16.50;;;;;16.55;45.31;101513.69;5057827;28;45586;-73
2022/09/17 01:57:18;;;;;;;;;7.00;6.33;;;;;16.24;45.68;101476.09;5054900;28;45486;-73
2022/09/17 01:59:50;;;;;;;;;5.67;3.00;;;;;16.52;45.52;101526.94;5053338;28;45475;-72
2022/09/17 02:02:49;;;;;;;;;4.67;3.00;;;;;16.42;45.51;101535.84;5054189;28;45301;-73
2022/09/17 02:05:47;;;;;;;;;0.33;0.33;;;;;16.31;46.14;101515.66;5051147;28;45893;-73
2022/09/17 02:08:21;;;;;;;;;0.50;0.50;;;;;16.34;45.44;101517.41;5049145;28;45732;-73
2022/09/17 02:10:54;;;;;;;;;0.00;0.00;;;;;16.21;45.55;101490.22;5052865;28;45415;-73
2022/09/17 02:13:31;;;;;;;;;4.00;0.67;;;;;16.27;45.44;101506.00;5053434;28;45604;-72
2022/09/17 02:16:06;;;;;;;;;0.33;0.00;;;;;16.29;45.44;101509.50;5054751;28;45518;-72
2022/09/17 02:18:40;;;;;;;;;0.00;0.00;;;;;16.40;45.33;101522.66;5056893;28;46119;-73
2022/09/17 02:21:52;;;;;;;;;0.67;0.67;;;;;16.32;45.43;101516.53;5055028;28;45719;-73
2022/09/17 02:24:23;;;;;;;;;0.67;0.00;;;;;16.36;45.11;101528.84;5020300;28;45639;-73
2022/09/17 02:27:10;;;;;;;;;2.00;0.00;;;;;16.30;45.80;101526.25;5058796;28;45357;-73
2022/09/17 02:29:45;;;;;;;;;0.00;0.00;;;;;16.22;45.86;101509.59;5056313;28;45436;-73
2022/09/17 02:32:11;;;;;;;;;4.00;0.00;;;;;15.92;46.00;101477.25;5058627;28;45451;-73
2022/09/17 02:34:38;;;;;;;;;0.00;0.00;;;;;16.22;45.89;101526.31;5076960;27;45396;-72
2022/09/17 02:37:05;;;;;;;;;0.33;0.33;;;;;16.21;45.93;101529.00;5058320;28;45354;-72
2022/09/17 02:39:31;;;;;;;;;0.00;0.00;;;;;16.14;46.24;101517.59;5072384;28;45510;-74
2022/09/17 02:42:22;;;;;;;;;0.00;0.00;;;;;16.16;46.15;101518.47;5057129;28;45623;-72
2022/09/17 02:45:09;;;;;;;;;0.00;0.00;;;;;16.17;46.24;101521.97;5056852;28;45438;-73
2022/09/17 02:47:50;;;;;;;;;0.00;0.00;;;;;16.16;46.07;101518.47;5060403;28;44826;-72
2022/09/17 02:50:31;;;;;;;;;1.00;1.00;;;;;16.16;45.86;101522.84;5060611;28;46475;-72
2022/09/17 02:53:27;;;;;;;;;0.67;0.00;;;;;16.14;46.00;101512.31;5060062;28;45362;-73
2022/09/17 02:56:17;;;;;;;;;1.00;0.00;;;;;16.14;46.20;101512.31;5060950;28;45397;-74
2022/09/17 02:59:24;;;;;;;;;0.00;0.00;;;;;16.10;46.06;101522.03;5051911;28;45372;-71
2022/09/17 03:01:54;;;;;;;;;0.00;0.00;;;;;16.11;46.26;101517.59;5056356;28;45471;-72
2022/09/17 03:04:24;;;;;;;;;0.00;0.00;;;;;16.06;46.16;101509.75;5060579;28;45365;-72
2022/09/17 03:06:52;;;;;;;;;0.00;0.00;;;;;16.10;46.15;101522.03;5059927;28;45385;-73
2022/09/17 03:09:18;;;;;;;;;0.00;0.00;;;;;15.88;45.79;101494.03;5056476;28;45413;-73
2022/09/17 03:11:44;;;;;;;;;0.00;0.00;;;;;15.95;46.27;101505.44;5056418;28;45906;-73
2022/09/17 03:14:13;;;;;;;;;0.00;0.00;;;;;15.94;45.68;101520.38;5055713;28;45338;-73
2022/09/17 03:16:38;;;;;;;;;1.00;0.00;;;;;16.02;46.15;101523.84;5056402;28;45723;-74
2022/09/17 03:19:04;;;;;;;;;0.00;0.00;;;;;16.01;46.15;101519.44;5056015;28;45608;-72
2022/09/17 03:21:34;;;;;;;;;0.00;0.00;;;;;16.02;46.41;101523.00;5056622;28;46667;-73
2022/09/17 03:24:00;;;;;;;;;0.00;0.00;;;;;15.98;46.55;101515.97;5057574;28;45321;-74
2022/09/17 03:26:26;;;;;;;;;0.00;0.00;;;;;15.88;46.60;101496.69;5054130;28;45394;-73
2022/09/17 03:28:52;;;;;;;;;0.33;0.00;;;;;15.97;46.87;101524.75;5058282;28;45396;-73
2022/09/17 03:31:18;;;;;;;;;0.00;0.00;;;;;15.72;47.25;101497.69;5075374;27;45513;-72
2022/09/17 03:33:44;;;;;;;;;0.00;0.00;;;;;15.74;46.93;101496.78;5058164;28;45433;-73
2022/09/17 03:36:09;;;;;;;;;0.00;0.00;;;;;15.81;46.54;101502.91;5059220;28;45827;-73
2022/09/17 03:38:37;;;;;;;;;0.00;0.00;;;;;15.41;46.82;101442.41;5056073;28;45457;-73
2022/09/17 03:41:08;;;;;;;;;2.00;1.00;;;;;15.88;46.57;101523.97;5052173;28;46559;-72
2022/09/17 03:43:34;;;;;;;;;0.00;0.00;;;;;15.86;46.62;101524.88;5048890;28;45459;-72
2022/09/17 03:46:03;;;;;;;;;0.00;0.00;;;;;15.82;46.91;101528.41;5054179;27;45436;-73
2022/09/17 03:48:31;;;;;;;;;0.00;0.00;;;;;15.85;46.90;101538.94;5054348;28;45381;-71
2022/09/17 03:50:56;;;;;;;;;1.33;1.00;;;;;15.83;46.91;101536.34;5055618;28;46130;-72
2022/09/17 03:53:22;;;;;;;;;0.00;0.00;;;;;15.76;46.44;101531.09;5057389;28;45737;-72
2022/09/17 03:55:49;;;;;;;;;0.00;0.00;;;;;15.67;47.10;101521.44;5056955;28;45589;-73
2022/09/17 03:58:14;;;;;;;;;1.00;0.00;;;;;15.74;47.27;101536.38;5055904;28;45487;-73
2022/09/17 04:00:40;;;;;;;;;0.00;0.00;;;;;15.71;47.14;101541.69;5050260;28;46632;-72
2022/09/17 04:03:06;;;;;;;;;0.67;0.00;;;;;15.60;47.07;101541.72;5058719;28;46539;-73
2022/09/17 04:05:35;;;;;;;;;0.00;0.00;;;;;15.58;47.24;101547.91;5077524;27;45489;-73
2022/09/17 04:08:01;;;;;;;;;0.00;0.00;;;;;15.25;47.92;101510.22;5061657;27;45529;-73
2022/09/17 04:10:28;;;;;;;;;1.00;1.00;;;;;15.33;47.70;101532.19;5063268;28;45417;-74
2022/09/17 04:12:54;;;;;;;;;3.00;0.00;;;;;15.33;48.37;101544.50;5065585;28;45391;-73
2022/09/17 04:15:20;;;;;;;;;2.00;0.00;;;;;15.22;48.07;101523.44;5058593;28;45507;-73
2022/09/17 04:17:46;;;;;;;;;0.00;0.00;;;;;15.21;48.13;101524.31;5055613;28;45795;-74
2022/09/17 04:20:12;;;;;;;;;0.00;0.00;;;;;15.44;47.82;101553.25;5055222;28;45905;-74
2022/09/17 04:22:37;;;;;;;;;0.00;0.00;;;;;15.48;47.39;101553.22;5057038;28;45325;-74
2022/09/17 04:25:07;;;;;;;;;0.00;0.00;;;;;15.34;47.64;101528.66;5059494;28;45352;-72
2022/09/17 04:27:32;;;;;;;;;0.00;0.00;;;;;15.25;47.57;101523.44;5053650;28;45562;-72
2022/09/17 04:29:58;;;;;;;;;0.33;0.33;;;;;15.33;47.83;101533.94;5053321;28;46497;-73
2022/09/17 04:32:24;;;;;;;;;0.00;0.00;;;;;15.22;47.79;101515.53;5064316;28;45383;-73
2022/09/17 04:34:49;;;;;;;;;0.00;0.00;;;;;15.47;47.68;101547.94;5055341;28;45673;-73
2022/09/17 04:37:18;;;;;;;;;1.33;0.00;;;;;15.31;47.42;101519.91;5055666;28;45443;-73
2022/09/17 04:39:44;;;;;;;;;0.00;0.00;;;;;15.35;47.34;101527.78;5055204;28;45560;-72
2022/09/17 04:42:09;;;;;;;;;1.67;0.00;;;;;15.57;47.45;101564.63;5058013;28;45484;-73
2022/09/17 04:44:35;;;;;;;;;1.00;0.00;;;;;15.59;47.31;101570.75;5059707;28;45509;-72
2022/09/17 04:47:04;;;;;;;;;0.00;0.00;;;;;15.60;47.35;101572.53;5057226;27;45477;-72
2022/09/17 04:49:29;;;;;;;;;0.33;0.33;;;;;15.60;47.28;101580.47;5063312;28;45576;-73
2022/09/17 04:51:55;;;;;;;;;1.00;0.00;;;;;15.60;47.50;101581.31;5055678;28;45596;-73
2022/09/17 04:54:21;;;;;;;;;0.67;0.67;;;;;15.46;47.77;101552.34;5054361;28;45282;-72
2022/09/17 04:56:47;;;;;;;;;1.33;0.00;;;;;15.47;47.76;101545.31;5058576;28;45330;-71
2022/09/17 04:59:13;;;;;;;;;0.00;0.00;;;;;15.45;47.99;101552.38;5053370;28;46687;-74
2022/09/17 05:01:39;;;;;;;;;0.00;0.00;;;;;15.45;47.73;101552.38;5059844;28;45392;-73
2022/09/17 05:04:04;;;;;;;;;1.00;0.00;;;;;15.54;47.54;101567.28;5072846;27;45458;-73
2022/09/17 05:06:30;;;;;;;;;0.00;0.00;;;;;15.49;47.75;101569.94;5070981;28;45367;-74
2022/09/17 05:08:56;;;;;;;;;0.00;0.00;;;;;15.55;47.59;101580.47;5075600;27;45515;-73
2022/09/17 05:11:22;;;;;;;;;1.00;1.00;;;;;15.57;47.50;101586.63;5070801;27;45783;-73
2022/09/17 05:13:51;;;;;;;;;0.00;0.00;;;;;15.37;47.59;101552.38;5073258;27;45553;-73
2022/09/17 05:16:19;;;;;;;;;0.33;0.33;;;;;15.42;47.74;101557.66;5060316;27;45616;-73
2022/09/17 05:18:50;;;;;;;;;0.33;0.00;;;;;15.54;47.90;101577.84;5056097;28;46297;-73
2022/09/17 05:21:19;;;;;;;;;0.00;0.00;;;;;15.41;47.87;101558.56;5055943;28;45448;-72
2022/09/17 05:23:48;;;;;;;;;3.33;0.00;;;;;15.48;47.73;101563.78;5045990;28;45454;-73
2022/09/17 05:26:14;;;;;;;;;1.00;1.00;;;;;15.38;47.71;101550.66;5051983;28;45399;-73
2022/09/17 05:28:40;;;;;;;;;0.00;0.00;;;;;15.56;48.10;101586.63;5042344;28;46182;-73
2022/09/17 05:31:06;;;;;;;;;1.33;0.00;;;;;15.54;48.00;101591.94;5054836;28;45542;-72
2022/09/17 05:33:32;;;;;;;;;0.33;0.33;;;;;15.20;48.11;101546.31;5054176;28;45696;-73
2022/09/17 05:35:58;;;;;;;;;2.00;0.67;;;;;15.38;48.11;101577.91;5051647;28;45625;-74
2022/09/17 05:38:24;;;;;;;;;0.00;0.00;;;;;15.44;48.04;101582.28;5046065;28;46495;-73
2022/09/17 05:40:50;;;;;;;;;0.00;0.00;;;;;15.34;48.01;101573.53;5053525;28;45858;-73
2022/09/17 05:43:19;;;;;;;;;2.33;1.00;;;;;15.33;48.19;101578.81;5054322;28;45382;-74
2022/09/17 05:45:45;;;;;;;;;0.00;0.00;;;;;15.42;48.49;101589.31;5055252;28;45446;-74
2022/09/17 05:48:12;;;;;;;;;1.00;0.00;;;;;15.36;48.12;101578.81;5073141;28;46823;-73
2022/09/17 05:50:39;;;;;;;;;2.00;0.00;;;;;15.44;48.44;101591.06;5054657;28;45538;-73
2022/09/17 05:53:14;;;;;;;;;0.00;0.00;;;;;15.48;48.05;101603.38;5053128;28;45493;-74
2022/09/17 05:55:39;;;;;;;;;0.00;0.00;;;;;15.42;48.02;101582.31;5057993;28;45403;-73
2022/09/17 05:58:13;;;;;;;;;1.00;0.67;;;;;15.40;48.44;101572.63;5056140;28;45604;-72
2022/09/17 06:00:40;;;;;;;;;1.33;1.33;;;;;15.60;48.25;101606.88;5032788;28;45524;-73
2022/09/17 06:03:07;;;;;;;;;0.00;0.00;;;;;15.69;47.72;101596.25;5055832;28;45496;-73
2022/09/17 06:05:36;;;;;;;;;1.67;1.00;;;;;15.94;47.38;101602.28;5073294;27;45499;-74
2022/09/17 06:08:05;;;;;;;;;0.67;0.67;;;;;15.99;46.95;101587.31;5053266;28;45633;-73
2022/09/17 06:10:38;;;;;;;;;0.00;0.00;;;;;15.97;47.05;101578.50;5053333;28;45290;-74
2022/09/17 06:13:04;;;;;;;;;2.00;0.00;;;;;16.13;46.58;101605.69;5068614;28;45399;-73
2022/09/17 06:15:30;;;;;;;;;1.00;0.00;;;;;16.19;46.48;101618.00;5053504;28;45823;-73
2022/09/17 06:17:56;;;;;;;;;0.00;0.00;;;;;16.23;46.65;101617.06;5053522;28;45482;-73
2022/09/17 06:20:22;;;;;;;;;2.00;1.00;;;;;16.28;46.46;101604.72;5038574;28;45312;-73
2022/09/17 06:22:48;;;;;;;;;0.00;0.00;;;;;16.14;46.20;101580.16;5054653;28;45475;-73
2022/09/17 06:25:14;;;;;;;;;0.00;0.00;;;;;16.22;45.71;101581.81;5055714;28;45360;-73
2022/09/17 06:27:40;;;;;;;;;0.00;0.00;;;;;16.43;45.61;101614.28;5051567;27;47834;-73
2022/09/17 06:30:06;;;;;;;;;1.00;1.00;;;;;16.50;45.45;101619.50;5053610;28;45570;-73
2022/09/17 06:32:35;;;;;;;;;1.67;1.00;;;;;16.52;45.24;101609.78;5053235;28;45452;-73
2022/09/17 06:35:06;;;;;;;;;1.00;1.00;;;;;16.66;45.23;101624.66;5053562;28;45404;-74
2022/09/17 06:37:39;;;;;;;;;0.00;0.00;;;;;16.73;44.89;101618.44;5053082;28;46467;-73
2022/09/17 06:40:05;;;;;;;;;0.67;0.00;;;;;16.48;44.82;101559.59;5055925;28;45399;-73
2022/09/17 06:42:32;;;;;;;;;3.67;1.00;;;;;16.57;44.32;101569.22;5055192;28;45393;-72
2022/09/17 06:44:58;;;;;;;;;1.00;1.00;;;;;16.79;44.36;101604.28;5051613;28;45507;-74
2022/09/17 06:47:24;;;;;;;;;1.00;1.00;;;;;16.97;44.05;101621.75;5052890;28;45426;-72
2022/09/17 06:49:50;;;;;;;;;5.00;1.00;;;;;17.02;44.14;101628.75;5057596;28;45467;-73
2022/09/17 06:52:16;;;;;;;;;3.00;1.00;;;;;16.94;43.99;101618.25;5053374;28;45523;-73
2022/09/17 06:54:42;;;;;;;;;1.00;1.00;;;;;17.13;43.85;101639.22;5069434;28;46053;-73
2022/09/17 06:57:09;;;;;;;;;0.67;0.67;;;;;17.15;43.44;101630.34;5053635;28;45928;-72
2022/09/17 06:59:35;;;;;;;;;0.00;0.00;;;;;17.20;43.60;101638.25;5057429;28;45372;-72
2022/09/17 07:02:04;;;;;;;;;0.67;0.00;;;;;16.98;43.31;101591.75;5061646;28;45480;-72
2022/09/17 07:04:30;;;;;;;;;0.67;0.00;;;;;17.32;43.38;101632.84;5059791;28;45375;-71
2022/09/17 07:06:56;;;;;;;;;2.67;0.67;;;;;17.15;42.99;101589.78;5056670;28;46980;-73
2022/09/17 07:09:22;;;;;;;;;0.67;0.00;;;;;17.36;42.87;101628.38;5053539;28;45507;-72
2022/09/17 07:11:51;;;;;;;;;0.00;0.00;;;;;17.50;42.76;101633.50;5055892;28;45478;-72
2022/09/17 07:14:18;;;;;;;;;1.00;0.33;;;;;17.55;42.65;101634.31;5072061;28;45470;-72
2022/09/17 07:16:43;;;;;;;;;1.00;1.00;;;;;17.58;42.81;101628.97;5056094;28;46249;-72
2022/09/17 07:19:26;;;;;;;;;1.00;1.00;;;;;17.67;42.45;101633.28;5057093;28;45481;-72
2022/09/17 07:21:52;;;;;;;;;0.33;0.33;;;;;17.63;42.32;101619.22;5057573;28;45419;-71
2022/09/17 07:24:43;;;;;;;;;0.00;0.00;;;;;17.76;42.16;101630.50;5057185;28;45529;-74
2022/09/17 07:27:10;;;;;;;;;0.33;0.33;;;;;17.75;42.05;101616.41;5063578;28;45579;-72
2022/09/17 07:29:40;;;;;;;;;0.00;0.00;;;;;17.73;41.79;101614.66;5057630;28;46034;-72
2022/09/17 07:32:06;;;;;;;;;1.33;0.00;;;;;17.87;41.60;101620.69;5060365;28;45404;-73
2022/09/17 07:34:36;;;;;;;;;0.33;0.33;;;;;17.92;41.24;101623.28;5035771;28;45362;-72
2022/09/17 07:37:05;;;;;;;;;0.00;0.00;;;;;17.86;41.20;101602.13;5052602;28;46350;-72
2022/09/17 07:39:41;;;;;;;;;0.33;0.33;;;;;17.89;41.27;101602.09;5060389;28;45992;-73
2022/09/17 07:42:08;;;;;;;;;2.00;0.00;;;;;18.01;40.92;101609.88;5061985;28;45558;-73
2022/09/17 07:44:34;;;;;;;;;1.00;0.00;;;;;17.87;41.05;101587.97;5057168;28;45598;-73
2022/09/17 07:47:00;;;;;;;;;3.00;0.00;;;;;17.96;40.69;101594.06;5060798;28;45595;-73
2022/09/17 07:49:26;;;;;;;;;0.00;0.00;;;;;18.18;40.76;101628.19;5060540;28;45452;-72
2022/09/17 07:51:53;;;;;;;;;0.67;0.00;;;;;18.18;40.68;101633.47;5069119;28;45633;-72
2022/09/17 07:54:19;;;;;;;;;0.00;0.00;;;;;18.03;40.67;101600.09;5078902;28;45424;-73
2022/09/17 07:56:49;;;;;;;;;1.00;1.00;;;;;18.28;40.61;101637.75;5074716;27;47465;-72
2022/09/17 07:59:18;;;;;;;;;0.00;0.00;;;;;18.31;41.24;101628.84;5075511;28;45862;-71
2022/09/17 08:01:43;;;;;;;;;1.00;1.00;;;;;18.35;40.67;101639.38;5076068;27;45453;-72
2022/09/17 08:04:09;;;;;;;;;0.00;0.00;;;;;18.05;40.73;101579.75;5075850;27;46642;-73
2022/09/17 08:06:37;;;;;;;;;0.67;0.00;;;;;18.44;40.98;101649.84;5064171;27;45194;-72
2022/09/17 08:09:02;;;;;;;;;1.67;0.00;;;;;18.46;40.71;101644.53;5075913;27;45322;-72
2022/09/17 08:11:35;;;;;;;;;1.33;0.00;;;;;18.28;40.79;101605.91;5073962;27;45416;-74
2022/09/17 08:14:04;;;;;;;;;2.00;1.00;;;;;18.52;40.60;101644.41;5066765;27;45512;-73
2022/09/17 08:16:31;;;;;;;;;0.00;0.00;;;;;18.39;40.59;101614.59;5061363;28;45421;-73
2022/09/17 08:18:57;;;;;;;;;0.67;0.67;;;;;18.42;41.11;101608.34;5054614;28;45439;-72
2022/09/17 08:21:23;;;;;;;;;0.00;0.00;;;;;18.67;40.23;101651.22;5066855;27;45613;-73
2022/09/17 08:23:49;;;;;;;;;1.00;0.00;;;;;18.62;40.14;101638.03;5058082;28;45384;-73
2022/09/17 08:26:21;;;;;;;;;2.00;1.00;;;;;18.73;40.14;101642.31;5053861;28;47055;-73
2022/09/17 08:28:55;;;;;;;;;0.67;0.67;;;;;18.79;39.91;101647.53;5055032;28;45600;-73
2022/09/17 08:31:23;;;;;;;;;0.00;0.00;;;;;18.57;39.93;101610.72;5053463;28;45956;-72
2022/09/17 08:33:52;;;;;;;;;0.33;0.33;;;;;18.84;39.89;101648.34;5055793;28;45582;-73
2022/09/17 08:36:21;;;;;;;;;1.33;1.00;;;;;18.81;40.03;101637.75;5058094;28;45355;-73
2022/09/17 08:38:50;;;;;;;;;1.00;0.00;;;;;18.94;39.83;101663.19;5070578;27;45439;-73
2022/09/17 08:41:32;;;;;;;;;0.33;0.00;;;;;18.95;39.90;101659.63;5068965;28;45373;-73
2022/09/17 08:44:12;;;;;;;;;2.00;0.00;;;;;19.02;39.65;101649.78;5070051;27;45396;-72
2022/09/17 08:46:51;;;;;;;;;2.00;0.00;;;;;19.06;39.94;101668.28;5072020;28;46300;-73
2022/09/17 08:49:34;;;;;;;;;0.67;0.67;;;;;19.06;39.90;101665.63;5057634;28;45485;-70
2022/09/17 08:52:19;;;;;;;;;1.00;1.00;;;;;18.90;39.82;101665.94;5071136;27;45433;-71
2022/09/17 08:55:02;;;;;;;;;1.00;1.00;;;;;18.84;40.29;101672.25;5067540;28;45888;-72
2022/09/17 08:57:47;;;;;;;;;0.67;0.00;;;;;18.90;40.53;101681.88;5070743;27;45366;-74
2022/09/17 09:00:17;;;;;;;;;1.00;0.00;;;;;18.90;40.24;101685.38;5067401;28;45422;-72
2022/09/17 09:03:10;;;;;;;;;0.00;0.00;;;;;19.10;40.15;101676.19;5064725;28;45555;-70
2022/09/17 09:05:42;;;;;;;;;1.67;0.00;;;;;19.39;39.28;101673.00;5063099;28;45679;-72
2022/09/17 09:08:35;;;;;;;;;1.00;0.33;;;;;19.53;38.86;101675.34;5065527;28;47704;-73
2022/09/17 09:11:13;;;;;;;;;1.00;1.00;;;;;19.34;38.55;101640.31;5065335;28;45613;-73
2022/09/17 09:14:07;;;;;;;;;0.33;0.33;;;;;19.43;38.29;101632.16;5067927;28;45500;-73
2022/09/17 09:16:38;;;;;;;;;1.33;1.00;;;;;19.59;38.57;101653.97;5057120;27;45439;-72
2022/09/17 09:19:19;;;;;;;;;1.33;0.00;;;;;19.65;39.35;101673.34;5054725;28;45466;-73
2022/09/17 09:22:29;;;;;;;;;1.00;1.00;;;;;19.56;39.15;101677.97;5054618;28;45443;-73
2022/09/17 09:25:28;;;;;;;;;1.00;0.00;;;;;19.66;38.74;101680.38;5067963;27;45304;-74
2022/09/17 09:28:38;;;;;;;;;0.33;0.33;;;;;19.52;38.67;101631.97;5062045;28;45487;-74
2022/09/17 09:31:20;;;;;;;;;1.33;0.00;;;;;19.80;38.65;101674.81;5041137;28;45905;-74
2022/09/17 09:33:49;;;;;;;;;1.00;0.00;;;;;19.72;38.71;101644.88;5054250;28;45534;-73
2022/09/17 09:36:20;;;;;;;;;1.33;0.00;;;;;19.90;38.27;101681.66;5054956;28;45436;-73
2022/09/17 09:38:52;;;;;;;;;0.00;0.00;;;;;19.95;38.05;101675.38;5070291;28;45421;-70
2022/09/17 09:41:36;;;;;;;;;0.00;0.00;;;;;19.84;38.13;101646.41;5062591;28;45317;-73
2022/09/17 09:44:13;;;;;;;;;1.33;0.00;;;;;19.76;37.58;101611.97;5064044;27;45662;-73
2022/09/17 09:46:59;;;;;;;;;3.00;0.00;;;;;20.29;36.99;101675.50;5062313;28;45858;-73
2022/09/17 09:49:56;;;;;;;;;0.00;0.00;;;;;20.24;37.28;101680.03;5063019;28;45352;-72
2022/09/17 09:52:47;;;;;;;;;0.33;0.00;;;;;20.09;36.90;101675.94;5070102;27;45431;-73
2022/09/17 09:55:30;;;;;;;;;2.33;0.00;;;;;19.52;37.18;101600.09;5063718;28;45556;-72
2022/09/17 09:58:16;;;;;;;;;2.00;1.00;;;;;19.99;36.61;101647.81;5061753;27;45413;-72
2022/09/17 10:00:42;;;;;;;;;0.00;0.00;;;;;20.44;35.94;101659.16;5066788;28;45471;-73
2022/09/17 10:03:35;;;;;;;;;1.33;0.00;;;;;20.49;35.76;101673.22;5062416;28;46050;-73
2022/09/17 10:06:11;;;;;;;;;0.00;0.00;;;;;20.25;35.64;101636.59;5069191;28;45366;-72
2022/09/17 10:08:56;;;;;;;;;0.00;0.00;;;;;20.64;35.86;101666.69;5065344;28;45487;-74
2022/09/17 10:11:24;;;;;;;;;0.00;0.00;;;;;20.73;35.75;101660.25;5057345;27;45432;-73
2022/09/17 10:13:50;;;;;;;;;0.00;0.00;;;;;20.95;35.59;101668.56;5062036;28;45884;-72
2022/09/17 10:16:28;;;;;;;;;0.00;0.00;;;;;21.04;35.12;101665.66;5059302;27;45516;-73
2022/09/17 10:19:03;;;;;;;;;1.00;1.00;;;;;21.21;35.08;101654.53;5054890;28;45816;-72
2022/09/17 10:21:55;;;;;;;;;2.00;1.33;;;;;21.28;34.39;101664.09;5052359;28;45895;-72
2022/09/17 10:24:32;;;;;;;;;1.00;1.00;;;;;21.28;34.44;101682.75;5050485;28;45467;-72
2022/09/17 10:27:11;;;;;;;;;1.00;1.00;;;;;21.08;34.37;101656.66;5051816;28;45471;-73
2022/09/17 10:29:42;;;;;;;;;0.67;0.67;;;;;21.40;34.25;101676.22;5054590;28;45416;-72
2022/09/17 10:32:17;;;;;;;;;0.00;0.00;;;;;21.51;33.83;101655.50;5054581;28;45421;-72
2022/09/17 10:34:58;;;;;;;;;1.33;0.00;;;;;21.89;33.35;101672.16;5049548;28;47134;-72
2022/09/17 10:37:54;;;;;;;;;1.00;0.00;;;;;22.09;32.85;101660.88;5052919;28;45420;-73
2022/09/17 10:40:19;;;;;;;;;2.67;2.00;;;;;22.44;32.88;101658.88;5045658;28;45505;-72
2022/09/17 10:43:20;;;;;;;;;1.00;1.00;;;;;22.71;32.45;101650.88;5054754;28;45429;-72
2022/09/17 10:45:56;;;;;;;;;1.00;1.00;;;;;22.32;31.83;101619.25;5056865;28;45353;-73
2022/09/17 10:48:22;;;;;;;;;0.00;0.00;;;;;22.35;32.14;101622.72;5051772;28;45543;-72
2022/09/17 10:50:51;;;;;;;;;0.00;0.00;;;;;22.65;31.63;101663.50;5052364;28;45467;-72
2022/09/17 10:53:19;;;;;;;;;1.00;1.00;;;;;22.74;30.96;101658.78;5056885;28;45412;-73
2022/09/17 10:56:11;;;;;;;;;1.67;1.00;;;;;22.93;31.31;101654.56;5056873;28;46635;-72
2022/09/17 10:58:52;;;;;;;;;0.00;0.00;;;;;23.05;31.40;101643.47;5060649;28;45561;-73
2022/09/17 11:01:56;;;;;;;;;1.00;1.00;;;;;22.71;31.59;101653.53;5061176;28;45377;-71
2022/09/17 11:04:56;;;;;;;;;0.00;0.00;;;;;22.59;31.59;101638.81;5060975;28;45409;-71
2022/09/17 11:07:28;;;;;;;;;0.67;0.67;;;;;23.18;30.76;101641.25;5057006;28;45828;-71
2022/09/17 11:10:09;;;;;;;;;0.00;0.00;;;;;23.55;30.43;101618.47;5055619;28;45351;-72
2022/09/17 11:12:50;;;;;;;;;0.00;0.00;;;;;24.16;29.58;101631.28;5056556;28;45448;-72
2022/09/17 11:15:48;;;;;;;;;1.00;1.00;;;;;24.63;28.31;101606.13;5055839;28;45472;-72
2022/09/17 11:18:36;;;;;;;;;0.00;0.00;;;;;24.91;28.01;101557.56;5054926;28;47740;-72
2022/09/17 11:21:23;;;;;;;;;0.67;0.00;;;;;24.95;27.62;101623.50;5066716;28;45541;-72
2022/09/17 11:24:33;;;;;;;;;0.00;0.00;;;;;24.19;28.24;101619.56;5062772;27;45439;-74
2022/09/17 11:27:20;;;;;;;;;0.00;0.00;;;;;23.75;28.89;101620.38;5053032;28;45373;-73
2022/09/17 11:30:14;;;;;;;;;2.67;1.00;;;;;23.79;29.04;101616.69;5056576;28;45441;-71
2022/09/17 11:33:19;;;;;;;;;0.00;0.00;;;;;23.64;29.08;101618.13;5035837;28;45519;-73
2022/09/17 11:36:19;;;;;;;;;0.00;0.00;;;;;24.54;28.07;101624.34;5055363;28;45514;-71
2022/09/17 11:38:52;;;;;;;;;1.00;1.00;;;;;27.80;24.06;101562.63;5056452;28;45393;-72
2022/09/17 11:41:23;;;;;;;;;0.00;0.00;;;;;30.30;22.18;101619.16;5058856;28;45306;-78
2022/09/17 11:44:13;;;;;;;;;2.00;1.00;;;;;31.33;21.23;101600.34;5076492;28;45260;-73
2022/09/17 11:46:55;;;;;;;;;0.00;0.00;;;;;32.04;19.76;101605.03;5044001;28;45708;-74
2022/09/17 11:49:59;;;;;;;;;0.00;0.00;;;;;32.92;18.43;101601.06;5056915;28;45416;-74
2022/09/17 11:52:43;;;;;;;;;0.00;0.00;;;;;32.26;19.28;101579.03;5030411;28;46694;-73
2022/09/17 11:55:48;;;;;;;;;0.20;0.20;;;;;31.73;19.58;101592.91;5055749;28;45565;-75
2022/09/17 11:58:25;;;;;;;;;1.00;0.00;;;;;29.73;21.01;101593.19;5035291;28;45521;-74